createdAt,value
2018-09-25T00:00:28.691Z,70.80
2018-09-25T00:01:28.443Z,67.40
2018-09-25T00:02:28.475Z,72.20
2018-09-25T00:03:28.552Z,67.40
2018-09-25T00:04:28.589Z,70.00
2018-09-25T00:05:28.845Z,70.80
2018-09-25T00:06:28.662Z,68.10
2018-09-25T00:07:28.719Z,65.40
2018-09-25T00:08:28.762Z,72.80
2018-09-25T00:09:28.857Z,67.40
2018-09-25T00:10:29.056Z,66.50
2018-09-25T00:11:29.074Z,68.20
2018-09-25T00:12:28.963Z,67.00
2018-09-25T00:13:28.995Z,69.20
2018-09-25T00:14:29.065Z,69.40
2018-09-25T00:15:29.119Z,70.70
2018-09-25T00:16:29.177Z,73.10
2018-09-25T00:17:29.391Z,72.20
2018-09-25T00:18:29.288Z,72.50
2018-09-25T00:19:29.258Z,74.10
2018-09-25T00:20:29.315Z,72.50
2018-09-25T00:21:29.412Z,75.10
2018-09-25T00:22:29.691Z,72.70
2018-09-25T00:23:29.522Z,70.20
2018-09-25T00:24:29.502Z,72.00
2018-09-25T00:25:29.588Z,71.40
2018-09-25T00:26:29.609Z,71.80
2018-09-25T00:27:29.581Z,69.80
2018-09-25T00:28:29.882Z,73.80
2018-09-25T00:29:29.695Z,71.50
2018-09-25T00:30:29.733Z,71.40
2018-09-25T00:31:29.753Z,70.30
2018-09-25T00:32:29.835Z,68.90
2018-09-25T00:33:29.857Z,65.90
2018-09-25T00:34:30.098Z,66.60
2018-09-25T00:35:29.950Z,65.20
2018-09-25T00:36:30.032Z,63.60
2018-09-25T00:37:30.094Z,66.60
2018-09-25T00:38:30.118Z,64.00
2018-09-25T00:39:30.314Z,63.20
2018-09-25T00:40:30.227Z,68.20
2018-09-25T00:41:30.246Z,65.70
2018-09-25T00:42:30.281Z,64.70
2018-09-25T00:43:30.344Z,64.00
2018-09-25T00:44:30.346Z,64.50
2018-09-25T00:45:30.549Z,63.10
2018-09-25T00:46:30.438Z,61.70
2018-09-25T00:47:30.493Z,62.40
2018-09-25T00:48:30.542Z,62.00
2018-09-25T00:49:30.628Z,61.80
2018-09-25T00:50:30.657Z,62.70
2018-09-25T00:51:30.673Z,60.10
2018-09-25T00:52:30.725Z,60.80
2018-09-25T00:53:30.739Z,61.30
2018-09-25T00:54:30.812Z,59.60
2018-09-25T00:55:30.834Z,59.70
2018-09-25T00:56:30.876Z,60.20
2018-09-25T00:57:30.953Z,60.50
2018-09-25T00:58:30.968Z,58.80
2018-09-25T00:59:30.989Z,61.60
2018-09-25T01:00:31.070Z,60.40
2018-09-25T01:01:31.138Z,58.70
2018-09-25T01:02:31.169Z,58.80
2018-09-25T01:03:31.209Z,59.40
2018-09-25T01:04:31.235Z,61.20
2018-09-25T01:05:31.265Z,58.30
2018-09-25T01:06:31.364Z,56.60
2018-09-25T01:07:31.382Z,55.90
2018-09-25T01:08:31.431Z,56.10
2018-09-25T01:09:31.461Z,55.30
2018-09-25T01:10:31.481Z,55.20
2018-09-25T01:11:31.593Z,58.50
2018-09-25T01:12:31.591Z,58.40
2018-09-25T01:13:31.657Z,56.20
2018-09-25T01:14:31.697Z,52.60
2018-09-25T01:15:31.728Z,54.10
2018-09-25T01:16:31.964Z,54.80
2018-09-25T01:17:31.820Z,52.90
2018-09-25T01:18:31.842Z,53.10
2018-09-25T01:19:31.886Z,54.50
2018-09-25T01:20:31.955Z,51.70
2018-09-25T01:21:32.140Z,53.40
2018-09-25T01:22:32.058Z,54.40
2018-09-25T01:23:32.089Z,55.00
2018-09-25T01:24:32.151Z,55.10
2018-09-25T01:25:32.191Z,55.20
2018-09-25T01:26:32.383Z,53.90
2018-09-25T01:27:32.282Z,55.60
2018-09-25T01:28:32.374Z,53.70
2018-09-25T01:29:32.347Z,57.80
2018-09-25T01:30:32.430Z,57.90
2018-09-25T01:31:32.473Z,59.20
2018-09-25T01:32:32.770Z,56.20
2018-09-25T01:33:32.591Z,54.30
2018-09-25T01:34:32.646Z,57.30
2018-09-25T01:35:32.623Z,56.40
2018-09-25T01:36:32.690Z,54.80
2018-09-25T01:37:32.754Z,55.00
2018-09-25T01:38:33.053Z,55.80
2018-09-25T01:39:32.813Z,58.20
2018-09-25T01:40:32.836Z,58.00
2018-09-25T01:41:32.897Z,59.00
2018-09-25T01:42:32.918Z,58.70
2018-09-25T01:43:32.963Z,59.50
2018-09-25T01:44:33.277Z,59.60
2018-09-25T01:45:33.073Z,56.10
2018-09-25T01:46:33.117Z,57.80
2018-09-25T01:47:33.160Z,57.90
2018-09-25T01:48:33.194Z,57.20
2018-09-25T01:49:33.256Z,52.90
2018-09-25T01:50:33.385Z,54.90
2018-09-25T01:51:33.333Z,52.70
2018-09-25T01:52:33.349Z,53.60
2018-09-25T01:53:33.436Z,55.50
2018-09-25T01:54:33.494Z,53.40
2018-09-25T01:55:33.748Z,54.70
2018-09-25T01:56:33.533Z,55.10
2018-09-25T01:57:33.583Z,57.70
2018-09-25T01:58:33.628Z,56.60
2018-09-25T01:59:33.663Z,56.10
2018-09-25T02:00:33.800Z,55.40
2018-09-25T02:01:33.745Z,51.10
2018-09-25T02:02:33.808Z,52.60
2018-09-25T02:03:33.876Z,50.30
2018-09-25T02:04:33.913Z,52.40
2018-09-25T02:05:34.093Z,49.20
2018-09-25T02:06:34.042Z,51.00
2018-09-25T02:07:34.038Z,48.90
2018-09-25T02:08:34.082Z,49.80
2018-09-25T02:09:34.114Z,47.00
2018-09-25T02:10:34.137Z,49.90
2018-09-25T02:11:34.320Z,48.50
2018-09-25T02:12:34.297Z,49.30
2018-09-25T02:13:34.287Z,50.20
2018-09-25T02:14:34.330Z,48.20
2018-09-25T02:15:34.408Z,51.10
2018-09-25T02:16:34.497Z,46.90
2018-09-25T02:17:34.466Z,48.40
2018-09-25T02:18:34.489Z,44.00
2018-09-25T02:19:34.543Z,45.50
2018-09-25T02:20:34.615Z,46.20
2018-09-25T02:21:34.926Z,44.40
2018-09-25T02:22:34.689Z,45.10
2018-09-25T02:23:34.736Z,44.30
2018-09-25T02:24:34.762Z,44.30
2018-09-25T02:26:19.410Z,47.60
2018-09-25T02:27:19.453Z,48.30
2018-09-25T02:28:19.489Z,48.80
2018-09-25T02:29:19.541Z,46.80
2018-09-25T02:32:42.327Z,46.90
2018-09-25T02:33:42.360Z,47.70
2018-09-25T02:35:42.448Z,47.40
2018-09-25T02:37:35.126Z,47.40
2018-09-25T02:41:21.204Z,47.70
2018-09-25T02:42:21.236Z,47.60
2018-09-25T02:43:21.274Z,48.00
2018-09-25T02:44:21.336Z,47.10
2018-09-25T02:45:21.374Z,48.10
2018-09-25T02:46:21.427Z,48.30
2018-09-25T02:47:21.476Z,46.90
2018-09-25T02:48:21.765Z,48.00
2018-09-25T02:49:21.555Z,47.90
2018-09-25T02:50:21.644Z,49.20
2018-09-25T02:51:21.676Z,48.80
2018-09-25T02:52:21.698Z,50.50
2018-09-25T02:53:21.830Z,51.30
2018-09-25T02:54:21.778Z,50.60
2018-09-25T02:55:21.823Z,51.40
2018-09-25T02:56:21.885Z,52.30
2018-09-25T02:57:21.905Z,52.10
2018-09-25T02:58:21.969Z,52.70
2018-09-25T02:59:22.143Z,52.50
2018-09-25T03:00:22.041Z,50.50
2018-09-25T03:01:22.096Z,50.80
2018-09-25T03:02:22.130Z,52.00
2018-09-25T03:03:22.169Z,51.10
2018-09-25T03:04:22.514Z,51.80
2018-09-25T03:05:22.326Z,50.60
2018-09-25T03:06:22.328Z,49.50
2018-09-25T03:07:22.369Z,51.60
2018-09-25T03:08:22.390Z,48.70
2018-09-25T03:09:22.572Z,49.50
2018-09-25T03:10:22.485Z,47.50
2018-09-25T03:11:22.522Z,49.50
2018-09-25T03:12:22.600Z,47.40
2018-09-25T03:13:22.661Z,46.30
2018-09-25T03:14:22.907Z,47.20
2018-09-25T03:15:22.722Z,47.70
2018-09-25T03:16:22.763Z,45.60
2018-09-25T03:17:22.789Z,44.50
2018-09-25T03:18:22.841Z,45.80
2018-09-25T03:19:23.015Z,46.40
2018-09-25T03:20:22.944Z,44.80
2018-09-25T03:21:22.946Z,45.20
2018-09-25T03:22:23.076Z,45.80
2018-09-25T03:23:23.047Z,44.30
2018-09-25T03:24:23.407Z,43.70
2018-09-25T03:25:23.154Z,45.60
2018-09-25T03:26:23.200Z,45.20
2018-09-25T03:27:23.233Z,46.00
2018-09-25T03:28:23.289Z,47.10
2018-09-25T03:29:23.329Z,45.50
2018-09-25T03:30:23.466Z,46.10
2018-09-25T03:31:23.423Z,46.80
2018-09-25T03:32:23.470Z,49.20
2018-09-25T03:33:23.501Z,47.90
2018-09-25T03:34:23.539Z,48.20
2018-09-25T03:35:23.868Z,47.60
2018-09-25T03:36:23.622Z,48.50
2018-09-25T03:37:23.716Z,51.60
2018-09-25T03:38:23.726Z,48.60
2018-09-25T03:39:23.809Z,50.90
2018-09-25T03:40:23.895Z,48.70
2018-09-25T03:41:23.843Z,48.30
2018-09-25T03:42:23.894Z,48.90
2018-09-25T03:43:24.002Z,48.10
2018-09-25T03:44:24.001Z,48.30
2018-09-25T03:45:24.035Z,46.90
2018-09-25T03:46:24.173Z,50.70
2018-09-25T03:47:24.131Z,48.40
2018-09-25T03:48:24.173Z,48.50
2018-09-25T03:49:24.210Z,48.90
2018-09-25T03:50:24.240Z,48.90
2018-09-25T03:51:24.292Z,49.70
2018-09-25T03:52:24.341Z,46.80
2018-09-25T03:53:24.388Z,49.60
2018-09-25T03:54:24.420Z,54.00
2018-09-25T03:55:24.454Z,50.00
2018-09-25T03:56:24.600Z,48.60
2018-09-25T03:57:24.604Z,50.70
2018-09-25T03:58:24.587Z,51.70
2018-09-25T03:59:24.654Z,49.90
2018-09-25T04:00:24.686Z,48.10
2018-09-25T04:01:24.988Z,48.20
2018-09-25T04:02:24.794Z,46.10
2018-09-25T04:03:24.833Z,46.70
2018-09-25T04:04:24.840Z,44.10
2018-09-25T04:05:24.894Z,44.30
2018-09-25T04:06:25.040Z,45.10
2018-09-25T04:07:24.990Z,46.60
2018-09-25T04:08:25.075Z,45.00
2018-09-25T04:09:25.088Z,46.20
2018-09-25T04:10:25.152Z,44.60
2018-09-25T04:11:25.330Z,47.40
2018-09-25T04:12:25.227Z,44.00
2018-09-25T04:13:25.254Z,42.90
2018-09-25T04:14:25.305Z,44.80
2018-09-25T04:15:25.333Z,42.60
2018-09-25T04:16:25.543Z,43.20
2018-09-25T04:17:25.434Z,43.50
2018-09-25T04:18:25.474Z,44.40
2018-09-25T04:19:25.532Z,43.10
2018-09-25T04:20:25.597Z,43.70
2018-09-25T04:21:25.929Z,44.70
2018-09-25T04:22:25.697Z,44.20
2018-09-25T04:23:25.744Z,43.30
2018-09-25T04:24:25.773Z,45.70
2018-09-25T04:25:25.838Z,44.80
2018-09-25T04:26:25.823Z,45.50
2018-09-25T04:27:25.899Z,46.50
2018-09-25T04:28:26.053Z,45.30
2018-09-25T04:29:25.992Z,48.50
2018-09-25T04:30:26.027Z,43.60
2018-09-25T04:31:26.101Z,44.90
2018-09-25T04:32:26.114Z,45.90
2018-09-25T04:33:26.444Z,45.10
2018-09-25T04:34:26.212Z,43.80
2018-09-25T04:35:26.263Z,44.60
2018-09-25T04:36:26.304Z,43.50
2018-09-25T04:37:26.362Z,42.10
2018-09-25T04:38:26.354Z,43.60
2018-09-25T04:39:26.525Z,44.20
2018-09-25T04:40:26.464Z,45.50
2018-09-25T04:41:26.497Z,43.00
2018-09-25T04:42:26.544Z,43.40
2018-09-25T04:43:26.644Z,41.80
2018-09-25T04:44:26.634Z,42.90
2018-09-25T04:45:26.791Z,44.40
2018-09-25T04:46:26.723Z,43.60
2018-09-25T04:47:26.787Z,44.40
2018-09-25T04:49:26.870Z,42.40
2018-09-25T04:50:26.917Z,42.70
2018-09-25T04:51:27.188Z,41.70
2018-09-25T04:52:26.988Z,45.30
2018-09-25T04:53:27.044Z,46.30
2018-09-25T04:54:27.091Z,47.80
2018-09-25T04:55:27.140Z,50.60
2018-09-25T04:56:27.171Z,48.80
2018-09-25T04:57:27.467Z,50.10
2018-09-25T04:58:27.274Z,49.40
2018-09-25T04:59:27.295Z,49.60
2018-09-25T05:00:27.355Z,51.10
2018-09-25T05:01:27.425Z,49.90
2018-09-25T05:02:27.738Z,50.10
2018-09-25T05:03:27.485Z,51.30
2018-09-25T05:04:27.545Z,49.80
2018-09-25T05:05:27.569Z,51.20
2018-09-25T05:06:27.659Z,50.50
2018-09-25T05:07:27.677Z,50.40
2018-09-25T05:08:27.735Z,51.50
2018-09-25T05:09:27.743Z,53.40
2018-09-25T05:10:27.827Z,53.80
2018-09-25T05:11:27.859Z,54.50
2018-09-25T05:12:27.896Z,51.50
2018-09-25T05:13:28.190Z,50.70
2018-09-25T05:14:27.988Z,51.80
2018-09-25T05:15:28.023Z,51.00
2018-09-25T05:16:28.119Z,49.00
2018-09-25T05:17:28.118Z,47.70
2018-09-25T05:18:28.477Z,47.50
2018-09-25T05:19:28.189Z,48.80
2018-09-25T05:20:28.255Z,48.60
2018-09-25T05:21:28.314Z,47.10
2018-09-25T05:22:28.354Z,50.00
2018-09-25T05:23:28.462Z,46.50
2018-09-25T05:24:28.737Z,47.70
2018-09-25T05:25:28.469Z,46.30
2018-09-25T05:26:28.503Z,44.60
2018-09-25T05:27:28.595Z,43.90
2018-09-25T05:28:28.609Z,45.70
2018-09-25T05:29:28.667Z,45.40
2018-09-25T05:30:28.981Z,43.20
2018-09-25T05:31:28.732Z,43.70
2018-09-25T05:32:28.794Z,44.30
2018-09-25T05:33:28.841Z,44.40
2018-09-25T05:34:28.882Z,41.40
2018-09-25T05:35:28.920Z,41.20
2018-09-25T05:36:29.031Z,38.40
2018-09-25T05:37:29.005Z,40.80
2018-09-25T05:38:29.053Z,41.30
2018-09-25T05:39:29.148Z,39.30
2018-09-25T05:40:29.118Z,37.00
2018-09-25T05:41:29.196Z,38.90
2018-09-25T05:42:29.326Z,37.00
2018-09-25T05:43:29.267Z,38.10
2018-09-25T05:44:29.324Z,38.20
2018-09-25T05:45:29.372Z,32.50
2018-09-25T05:46:29.455Z,33.20
2018-09-25T05:47:29.796Z,33.30
2018-09-25T05:48:29.591Z,31.80
2018-09-25T05:49:29.527Z,31.80
2018-09-25T05:50:29.597Z,32.50
2018-09-25T05:51:29.637Z,33.40
2018-09-25T05:52:29.774Z,32.30
2018-09-25T05:53:29.708Z,32.80
2018-09-25T05:54:29.781Z,32.30
2018-09-25T05:55:29.812Z,32.90
2018-09-25T05:56:29.864Z,32.30
2018-09-25T05:57:30.208Z,30.90
2018-09-25T05:58:29.932Z,29.50
2018-09-25T05:59:30.004Z,29.40
2018-09-25T06:00:30.027Z,28.10
2018-09-25T06:01:30.061Z,27.80
2018-09-25T06:02:30.115Z,29.50
2018-09-25T06:03:30.254Z,28.60
2018-09-25T06:04:30.212Z,30.30
2018-09-25T06:05:30.254Z,29.90
2018-09-25T06:06:30.307Z,29.50
2018-09-25T06:07:30.339Z,29.40
2018-09-25T06:08:30.693Z,27.20
2018-09-25T06:09:30.464Z,26.10
2018-09-25T06:10:30.491Z,24.00
2018-09-25T06:11:30.531Z,24.80
2018-09-25T06:12:30.586Z,25.30
2018-09-25T06:13:30.721Z,24.80
2018-09-25T06:14:30.668Z,24.80
2018-09-25T06:15:30.739Z,24.40
2018-09-25T06:16:30.761Z,24.00
2018-09-25T06:17:30.827Z,24.40
2018-09-25T06:18:30.850Z,24.10
2018-09-25T06:19:31.183Z,25.40
2018-09-25T06:20:30.943Z,25.00
2018-09-25T06:21:30.990Z,24.40
2018-09-25T06:22:31.088Z,23.90
2018-09-25T06:23:31.070Z,23.10
2018-09-25T06:24:31.118Z,24.60
2018-09-25T06:25:31.213Z,25.00
2018-09-25T06:26:31.201Z,23.60
2018-09-25T06:27:31.255Z,25.40
2018-09-25T06:28:31.312Z,23.30
2018-09-25T06:29:31.337Z,23.50
2018-09-25T06:30:31.779Z,22.30
2018-09-25T06:31:31.429Z,21.10
2018-09-25T06:32:31.476Z,23.20
2018-09-25T06:33:31.524Z,22.00
2018-09-25T06:34:31.609Z,20.90
2018-09-25T06:35:31.629Z,20.80
2018-09-25T06:36:31.679Z,21.10
2018-09-25T06:37:31.762Z,20.90
2018-09-25T06:38:31.775Z,20.30
2018-09-25T06:39:31.778Z,21.00
2018-09-25T06:40:32.117Z,20.60
2018-09-25T06:41:31.919Z,20.40
2018-09-25T06:42:31.943Z,20.80
2018-09-25T06:43:31.950Z,20.40
2018-09-25T06:44:32.026Z,21.10
2018-09-25T06:45:32.079Z,20.90
2018-09-25T06:46:32.114Z,21.80
2018-09-25T06:47:32.167Z,21.70
2018-09-25T06:48:32.189Z,22.20
2018-09-25T06:49:32.241Z,22.80
2018-09-25T06:50:32.285Z,22.50
2018-09-25T06:51:32.327Z,22.60
2018-09-25T06:52:32.399Z,22.40
2018-09-25T06:53:32.465Z,22.70
2018-09-25T06:54:32.474Z,22.00
2018-09-25T06:55:32.506Z,22.00
2018-09-25T06:56:32.856Z,21.00
2018-09-25T06:57:32.601Z,21.10
2018-09-25T06:58:32.640Z,19.90
2018-09-25T06:59:32.700Z,21.70
2018-09-25T07:00:32.742Z,21.30
2018-09-25T07:01:32.773Z,20.80
2018-09-25T07:02:32.940Z,21.00
2018-09-25T07:03:32.897Z,21.00
2018-09-25T07:04:32.899Z,22.10
2018-09-25T07:05:32.972Z,21.60
2018-09-25T07:06:33.059Z,21.60
2018-09-25T07:07:33.293Z,21.40
2018-09-25T07:08:33.107Z,22.20
2018-09-25T07:09:33.165Z,21.00
2018-09-25T07:10:33.330Z,21.30
2018-09-25T07:11:33.267Z,21.70
2018-09-25T07:12:33.330Z,21.80
2018-09-25T07:13:33.761Z,21.90
2018-09-25T07:14:33.398Z,22.80
2018-09-25T07:15:33.478Z,22.20
2018-09-25T07:16:33.460Z,22.00
2018-09-25T07:17:33.531Z,23.20
2018-09-25T07:18:33.548Z,22.00
2018-09-25T07:19:33.858Z,22.00
2018-09-25T07:20:33.622Z,22.40
2018-09-25T07:21:33.682Z,22.00
2018-09-25T07:22:33.771Z,21.30
2018-09-25T07:23:33.789Z,21.50
2018-09-25T07:24:33.839Z,21.20
2018-09-25T07:25:34.154Z,22.20
2018-09-25T07:26:33.925Z,21.70
2018-09-25T07:27:33.953Z,22.00
2018-09-25T07:28:34.102Z,21.70
2018-09-25T07:29:34.051Z,21.90
2018-09-25T07:30:34.083Z,21.40
2018-09-25T07:31:34.232Z,21.30
2018-09-25T07:32:34.204Z,21.10
2018-09-25T07:33:34.218Z,21.20
2018-09-25T07:34:34.262Z,20.60
2018-09-25T07:35:34.304Z,21.10
2018-09-25T07:36:34.451Z,21.30
2018-09-25T07:37:34.401Z,20.80
2018-09-25T07:38:34.452Z,21.80
2018-09-25T07:39:34.539Z,21.00
2018-09-25T07:40:34.548Z,22.90
2018-09-25T07:41:34.594Z,21.90
2018-09-25T07:42:34.667Z,22.00
2018-09-25T07:43:34.691Z,30.00
2018-09-25T07:44:34.719Z,29.30
2018-09-25T07:45:34.777Z,33.30
2018-09-25T07:46:34.841Z,34.30
2018-09-25T07:47:35.084Z,35.00
2018-09-25T07:48:34.947Z,34.90
2018-09-25T07:49:34.958Z,35.30
2018-09-25T07:50:34.996Z,35.20
2018-09-25T07:51:35.038Z,37.30
2018-09-25T07:52:35.183Z,35.60
2018-09-25T07:53:35.131Z,36.00
2018-09-25T07:54:35.177Z,36.00
2018-09-25T07:55:35.314Z,35.80
2018-09-25T07:56:35.315Z,35.10
2018-09-25T07:57:35.597Z,37.20
2018-09-25T07:58:35.365Z,37.10
2018-09-25T07:59:35.394Z,37.00
2018-09-25T08:00:35.426Z,38.40
2018-09-25T08:01:35.496Z,34.00
2018-09-25T08:02:35.635Z,39.30
2018-09-25T08:03:35.600Z,38.40
2018-09-25T08:04:35.631Z,39.10
2018-09-25T08:05:35.658Z,39.40
2018-09-25T08:06:35.708Z,37.70
2018-09-25T08:07:35.758Z,38.40
2018-09-25T08:08:35.898Z,38.00
2018-09-25T08:09:35.831Z,35.60
2018-09-25T08:10:35.892Z,35.60
2018-09-25T08:11:35.942Z,36.70
2018-09-25T08:12:35.974Z,36.00
2018-09-25T08:13:36.309Z,33.10
2018-09-25T08:14:36.070Z,32.70
2018-09-25T08:15:36.170Z,33.70
2018-09-25T08:16:36.164Z,34.50
2018-09-25T08:17:36.202Z,36.00
2018-09-25T08:18:36.245Z,34.70
2018-09-25T08:19:36.272Z,35.30
2018-09-25T08:20:36.348Z,36.80
2018-09-25T08:21:36.381Z,36.10
2018-09-25T08:22:36.401Z,34.80
2018-09-25T08:23:36.507Z,36.30
2018-09-25T08:24:36.590Z,34.50
2018-09-25T08:25:36.538Z,32.60
2018-09-25T08:26:36.612Z,33.40
2018-09-25T08:27:36.673Z,33.40
2018-09-25T08:28:36.671Z,29.30
2018-09-25T08:29:37.360Z,31.40
2018-09-25T08:30:36.759Z,30.10
2018-09-25T08:31:36.808Z,29.40
2018-09-25T08:32:36.862Z,27.20
2018-09-25T08:33:36.945Z,28.60
2018-09-25T08:34:36.939Z,28.30
2018-09-25T08:35:36.999Z,28.70
2018-09-25T08:36:37.039Z,28.30
2018-09-25T08:37:37.077Z,28.30
2018-09-25T08:38:37.143Z,28.50
2018-09-25T08:39:37.378Z,28.10
2018-09-25T08:40:37.510Z,28.60
2018-09-25T08:41:37.264Z,27.20
2018-09-25T08:42:37.352Z,29.60
2018-09-25T08:43:37.358Z,28.30
2018-09-25T08:44:37.407Z,28.80
2018-09-25T08:45:37.475Z,26.40
2018-09-25T08:46:37.564Z,26.50
2018-09-25T08:47:37.521Z,25.10
2018-09-25T08:48:37.559Z,25.80
2018-09-25T08:49:37.656Z,26.10
2018-09-25T08:50:37.672Z,26.50
2018-09-25T08:51:37.695Z,24.90
2018-09-25T08:52:38.027Z,24.60
2018-09-25T08:53:37.837Z,25.50
2018-09-25T08:54:37.850Z,24.60
2018-09-25T08:55:37.874Z,23.10
2018-09-25T08:56:37.923Z,24.50
2018-09-25T08:57:38.077Z,25.10
2018-09-25T08:58:38.016Z,25.80
2018-09-25T08:59:38.049Z,24.00
2018-09-25T09:00:38.112Z,23.80
2018-09-25T09:01:38.127Z,24.60
2018-09-25T09:02:38.532Z,27.10
2018-09-25T09:03:38.204Z,24.60
2018-09-25T09:04:38.304Z,25.30
2018-09-25T09:05:38.326Z,23.50
2018-09-25T09:06:38.355Z,23.00
2018-09-25T09:07:38.424Z,23.60
2018-09-25T09:08:38.568Z,23.30
2018-09-25T09:09:38.504Z,23.40
2018-09-25T09:10:38.560Z,23.00
2018-09-25T09:11:38.597Z,23.00
2018-09-25T09:12:38.634Z,23.90
2018-09-25T09:13:39.009Z,23.00
2018-09-25T09:14:38.714Z,23.70
2018-09-25T09:15:38.767Z,23.90
2018-09-25T09:16:38.851Z,23.40
2018-09-25T09:17:38.852Z,23.40
2018-09-25T09:18:38.996Z,21.40
2018-09-25T09:19:38.978Z,22.40
2018-09-25T09:20:38.994Z,22.10
2018-09-25T09:21:39.018Z,21.60
2018-09-25T09:22:39.081Z,21.80
2018-09-25T09:23:39.116Z,22.70
2018-09-25T09:24:39.406Z,22.00
2018-09-25T09:25:39.224Z,21.30
2018-09-25T09:26:39.262Z,21.20
2018-09-25T09:27:39.285Z,20.40
2018-09-25T09:28:39.348Z,20.90
2018-09-25T09:29:39.491Z,21.80
2018-09-25T09:30:39.428Z,21.60
2018-09-25T09:31:39.466Z,21.30
2018-09-25T09:32:39.543Z,20.30
2018-09-25T09:33:39.590Z,21.40
2018-09-25T09:34:39.603Z,21.00
2018-09-25T09:35:39.638Z,20.20
2018-09-25T09:36:39.714Z,21.10
2018-09-25T09:37:39.743Z,20.60
2018-09-25T09:38:39.784Z,20.50
2018-09-25T09:39:39.833Z,20.30
2018-09-25T09:40:39.882Z,19.10
2018-09-25T09:41:40.172Z,18.50
2018-09-25T09:42:39.964Z,19.10
2018-09-25T09:43:40.018Z,19.40
2018-09-25T09:44:40.071Z,18.50
2018-09-25T09:45:40.085Z,19.00
2018-09-25T09:46:40.139Z,18.60
2018-09-25T09:47:40.177Z,18.60
2018-09-25T09:48:40.249Z,18.80
2018-09-25T09:49:40.300Z,18.30
2018-09-25T09:50:40.319Z,19.00
2018-09-25T09:51:40.364Z,18.30
2018-09-25T09:52:40.418Z,18.90
2018-09-25T09:53:40.464Z,19.10
2018-09-25T09:54:40.513Z,18.80
2018-09-25T09:55:40.539Z,19.50
2018-09-25T09:56:40.595Z,20.10
2018-09-25T09:57:40.613Z,18.80
2018-09-25T09:58:40.705Z,19.80
2018-09-25T09:59:40.719Z,19.60
2018-09-25T10:00:40.893Z,19.80
2018-09-25T10:01:40.810Z,20.00
2018-09-25T10:02:40.853Z,19.30
2018-09-25T10:03:40.892Z,19.80
2018-09-25T10:04:41.002Z,20.30
2018-09-25T10:05:41.008Z,20.10
2018-09-25T10:06:41.394Z,21.70
2018-09-25T10:07:41.071Z,21.00
2018-09-25T10:08:41.140Z,22.20
2018-09-25T10:09:41.199Z,22.10
2018-09-25T10:10:41.220Z,22.20
2018-09-25T10:11:41.409Z,22.60
2018-09-25T10:12:41.333Z,22.30
2018-09-25T10:13:41.351Z,21.60
2018-09-25T10:14:41.411Z,21.00
2018-09-25T10:15:41.464Z,22.30
2018-09-25T10:16:41.501Z,22.10
2018-09-25T10:17:41.851Z,21.20
2018-09-25T10:18:41.602Z,21.50
2018-09-25T10:19:41.647Z,19.30
2018-09-25T10:20:41.671Z,20.10
2018-09-25T10:21:41.730Z,19.40
2018-09-25T10:22:41.794Z,20.70
2018-09-25T10:23:41.945Z,19.40
2018-09-25T10:24:41.926Z,19.70
2018-09-25T10:25:41.944Z,19.20
2018-09-25T10:26:41.971Z,18.30
2018-09-25T10:27:42.046Z,17.60
2018-09-25T10:28:42.175Z,16.20
2018-09-25T10:29:42.125Z,15.80
2018-09-25T10:30:42.220Z,15.10
2018-09-25T10:31:42.218Z,15.40
2018-09-25T10:32:42.284Z,15.50
2018-09-25T10:33:42.417Z,14.60
2018-09-25T10:34:42.388Z,15.50
2018-09-25T10:35:42.433Z,15.20
2018-09-25T10:36:42.458Z,15.10
2018-09-25T10:37:42.531Z,15.40
2018-09-25T10:38:42.910Z,15.20
2018-09-25T10:39:42.657Z,14.40
2018-09-25T10:40:42.686Z,14.70
2018-09-25T10:41:42.711Z,14.00
2018-09-25T10:42:42.794Z,15.00
2018-09-25T10:43:42.911Z,14.10
2018-09-25T10:44:42.880Z,14.00
2018-09-25T10:45:42.946Z,14.30
2018-09-25T10:46:42.992Z,15.00
2018-09-25T10:47:43.039Z,14.90
2018-09-25T10:48:43.098Z,15.50
2018-09-25T10:49:43.268Z,15.60
2018-09-25T10:50:43.194Z,15.50
2018-09-25T10:51:43.249Z,14.30
2018-09-25T10:52:43.315Z,14.70
2018-09-25T10:53:43.333Z,14.90
2018-09-25T10:54:43.402Z,15.00
2018-09-25T10:55:43.652Z,16.40
2018-09-25T10:56:43.491Z,15.90
2018-09-25T10:57:43.601Z,16.00
2018-09-25T10:58:43.612Z,15.80
2018-09-25T10:59:43.648Z,16.60
2018-09-25T11:00:43.817Z,16.00
2018-09-25T11:01:43.778Z,15.70
2018-09-25T11:02:43.850Z,15.70
2018-09-25T11:03:43.869Z,16.00
2018-09-25T11:04:43.946Z,17.10
2018-09-25T11:05:43.993Z,16.10
2018-09-25T11:06:44.141Z,16.80
2018-09-25T11:07:44.099Z,16.60
2018-09-25T11:08:44.151Z,16.50
2018-09-25T11:09:44.192Z,16.60
2018-09-25T11:10:44.256Z,17.60
2018-09-25T11:11:44.345Z,17.40
2018-09-25T11:12:44.490Z,17.60
2018-09-25T11:13:44.409Z,17.90
2018-09-25T11:14:44.483Z,18.10
2018-09-25T11:15:44.540Z,18.00
2018-09-25T11:16:44.579Z,17.60
2018-09-25T11:17:44.719Z,16.80
2018-09-25T11:18:44.700Z,17.70
2018-09-25T11:19:44.744Z,17.40
2018-09-25T11:20:44.844Z,16.80
2018-09-25T11:21:44.870Z,17.70
2018-09-25T11:22:44.984Z,17.30
2018-09-25T11:23:44.953Z,16.90
2018-09-25T11:24:45.008Z,17.10
2018-09-25T11:25:45.064Z,17.40
2018-09-25T11:26:45.111Z,17.60
2018-09-25T11:27:45.179Z,17.90
2018-09-25T11:28:45.241Z,17.80
2018-09-25T11:29:45.305Z,17.10
2018-09-25T11:30:45.324Z,18.00
2018-09-25T11:31:45.368Z,17.70
2018-09-25T11:32:45.448Z,18.80
2018-09-25T11:33:45.593Z,17.80
2018-09-25T11:34:45.560Z,16.90
2018-09-25T11:35:45.620Z,17.40
2018-09-25T11:36:45.671Z,17.30
2018-09-25T11:37:45.696Z,17.40
2018-09-25T11:38:45.792Z,17.40
2018-09-25T11:39:45.813Z,19.10
2018-09-25T11:40:45.942Z,19.00
2018-09-25T11:41:45.919Z,17.30
2018-09-25T11:42:45.978Z,17.00
2018-09-25T11:43:46.052Z,17.20
2018-09-25T11:44:46.214Z,16.90
2018-09-25T11:45:46.199Z,17.50
2018-09-25T11:46:46.343Z,15.70
2018-09-25T11:47:46.285Z,16.20
2018-09-25T11:48:46.341Z,16.80
2018-09-25T11:49:46.424Z,17.00
2018-09-25T11:50:46.532Z,15.80
2018-09-25T11:51:46.494Z,17.00
2018-09-25T11:52:46.619Z,16.80
2018-09-25T11:53:46.606Z,17.30
2018-09-25T11:54:46.664Z,16.80
2018-09-25T11:55:46.725Z,16.90
2018-09-25T11:56:46.892Z,17.70
2018-09-25T11:57:46.849Z,18.00
2018-09-25T11:58:46.890Z,18.20
2018-09-25T11:59:46.971Z,17.70
2018-09-25T12:00:47.026Z,17.90
2018-09-25T12:01:47.069Z,18.40
2018-09-25T12:02:47.395Z,17.00
2018-09-25T12:03:47.190Z,16.40
2018-09-25T12:04:47.239Z,17.10
2018-09-25T12:05:47.326Z,17.30
2018-09-25T12:06:47.375Z,17.10
2018-09-25T12:07:47.526Z,17.10
2018-09-25T12:08:47.469Z,17.90
2018-09-25T12:09:47.529Z,18.20
2018-09-25T12:10:47.580Z,17.70
2018-09-25T12:11:47.650Z,17.30
2018-09-25T12:12:47.714Z,17.70
2018-09-25T12:13:47.896Z,17.50
2018-09-25T12:14:47.866Z,17.10
2018-09-25T12:15:47.880Z,17.10
2018-09-25T12:16:47.943Z,16.30
2018-09-25T12:17:48.037Z,16.60
2018-09-25T12:18:48.055Z,17.20
2018-09-25T12:19:48.196Z,16.00
2018-09-25T12:20:48.163Z,16.10
2018-09-25T12:21:48.238Z,16.40
2018-09-25T12:22:48.273Z,15.90
2018-09-25T12:23:48.346Z,16.70
2018-09-25T12:24:48.405Z,15.20
2018-09-25T12:25:48.570Z,15.30
2018-09-25T12:26:48.875Z,16.80
2018-09-25T12:27:48.586Z,15.80
2018-09-25T12:28:48.634Z,15.80
2018-09-25T12:29:48.703Z,15.80
2018-09-25T12:30:48.771Z,15.50
2018-09-25T12:31:48.921Z,15.80
2018-09-25T12:32:48.857Z,15.20
2018-09-25T12:33:49.028Z,15.40
2018-09-25T12:34:49.009Z,16.10
2018-09-25T12:35:49.057Z,16.40
2018-09-25T12:36:49.151Z,16.20
2018-09-25T12:37:49.407Z,18.00
2018-09-25T12:38:49.231Z,17.70
2018-09-25T12:39:49.291Z,16.50
2018-09-25T12:40:49.370Z,15.70
2018-09-25T12:41:49.444Z,16.70
2018-09-25T12:42:49.570Z,17.00
2018-09-25T12:43:49.505Z,17.10
2018-09-25T12:44:49.565Z,16.80
2018-09-25T12:45:49.632Z,16.70
2018-09-25T12:46:49.694Z,17.20
2018-09-25T12:47:49.739Z,15.40
2018-09-25T12:48:49.931Z,16.50
2018-09-25T12:49:49.861Z,15.80
2018-09-25T12:50:49.942Z,16.50
2018-09-25T12:51:49.978Z,16.50
2018-09-25T12:52:50.049Z,15.70
2018-09-25T12:53:50.113Z,15.70
2018-09-25T12:54:50.251Z,15.90
2018-09-25T12:55:50.235Z,16.30
2018-09-25T12:56:50.282Z,16.20
2018-09-25T12:57:50.330Z,15.70
2018-09-25T12:58:50.400Z,15.90
2018-09-25T12:59:50.474Z,16.00
2018-09-25T13:00:50.521Z,17.20
2018-09-25T13:01:50.593Z,16.90